sensor_id;sensor_type;location;lat;lon;timestamp;pressure;altitude;pressure_sealevel;temperature;humidity
63956;BME280;50131;52.084;5.228;2022-07-22T00:01:35;102292.0;;;17.62;81.2
63956;BME280;50131;52.084;5.228;2022-07-22T00:03:21;102295.0;;;17.66;81.2
63956;BME280;50131;52.084;5.228;2022-07-22T00:05:08;102295.0;;;17.63;80.53
63956;BME280;50131;52.084;5.228;2022-07-22T00:06:55;102296.0;;;17.61;81.19
63956;BME280;50131;52.084;5.228;2022-07-22T00:08:41;102299.0;;;17.63;81.81
63956;BME280;50131;52.084;5.228;2022-07-22T00:10:28;102297.0;;;17.68;81.66
63956;BME280;50131;52.084;5.228;2022-07-22T00:14:01;102293.0;;;17.68;81.48
63956;BME280;50131;52.084;5.228;2022-07-22T00:15:48;102294.0;;;17.68;82.17
63956;BME280;50131;52.084;5.228;2022-07-22T00:17:36;102290.0;;;17.68;83.68
63956;BME280;50131;52.084;5.228;2022-07-22T00:19:26;102291.0;;;17.7;82.5
63956;BME280;50131;52.084;5.228;2022-07-22T00:21:13;102290.0;;;17.7;82.31
63956;BME280;50131;52.084;5.228;2022-07-22T00:22:59;102289.0;;;17.8;81.52
63956;BME280;50131;52.084;5.228;2022-07-22T00:26:32;102286.0;;;17.95;80.52
63956;BME280;50131;52.084;5.228;2022-07-22T00:28:19;102286.0;;;17.79;80.66
63956;BME280;50131;52.084;5.228;2022-07-22T00:30:07;102285.0;;;17.84;82.23
63956;BME280;50131;52.084;5.228;2022-07-22T00:31:54;102285.0;;;17.84;82.67
63956;BME280;50131;52.084;5.228;2022-07-22T00:33:41;102285.0;;;17.86;83.89
63956;BME280;50131;52.084;5.228;2022-07-22T00:35:28;102281.0;;;17.79;84.09
63956;BME280;50131;52.084;5.228;2022-07-22T00:39:02;102283.0;;;17.73;85.8
63956;BME280;50131;52.084;5.228;2022-07-22T00:40:49;102285.0;;;17.73;84.95
63956;BME280;50131;52.084;5.228;2022-07-22T00:42:36;102282.0;;;17.71;84.86
63956;BME280;50131;52.084;5.228;2022-07-22T00:44:23;102285.0;;;17.73;84.13
63956;BME280;50131;52.084;5.228;2022-07-22T00:46:09;102284.0;;;17.79;83.79
63956;BME280;50131;52.084;5.228;2022-07-22T00:49:41;102280.0;;;17.79;83.85
63956;BME280;50131;52.084;5.228;2022-07-22T00:51:28;102277.0;;;17.75;84.51
63956;BME280;50131;52.084;5.228;2022-07-22T00:53:16;102278.0;;;17.78;84.99
63956;BME280;50131;52.084;5.228;2022-07-22T00:55:06;102276.0;;;17.81;83.8
63956;BME280;50131;52.084;5.228;2022-07-22T00:56:52;102274.0;;;17.82;83.08
63956;BME280;50131;52.084;5.228;2022-07-22T00:58:38;102271.0;;;17.77;84.93
63956;BME280;50131;52.084;5.228;2022-07-22T01:02:13;102276.0;;;17.72;84.43
63956;BME280;50131;52.084;5.228;2022-07-22T01:04:00;102272.0;;;17.73;84.53
63956;BME280;50131;52.084;5.228;2022-07-22T01:05:47;102271.0;;;17.84;83.54
63956;BME280;50131;52.084;5.228;2022-07-22T01:07:33;102270.0;;;17.84;82.37
63956;BME280;50131;52.084;5.228;2022-07-22T01:09:20;102271.0;;;17.75;80.83
63956;BME280;50131;52.084;5.228;2022-07-22T01:11:08;102269.0;;;17.73;80.78
63956;BME280;50131;52.084;5.228;2022-07-22T01:14:41;102270.0;;;17.75;80.77
63956;BME280;50131;52.084;5.228;2022-07-22T01:16:29;102268.0;;;17.75;80.19
63956;BME280;50131;52.084;5.228;2022-07-22T01:18:15;102268.0;;;17.72;80.05
63956;BME280;50131;52.084;5.228;2022-07-22T01:20:03;102269.0;;;17.78;79.72
63956;BME280;50131;52.084;5.228;2022-07-22T01:21:50;102271.0;;;17.75;79.88
63956;BME280;50131;52.084;5.228;2022-07-22T01:23:37;102269.0;;;17.72;80.16
63956;BME280;50131;52.084;5.228;2022-07-22T01:27:12;102273.0;;;17.73;80.5
63956;BME280;50131;52.084;5.228;2022-07-22T01:28:58;102269.0;;;17.77;80.36
63956;BME280;50131;52.084;5.228;2022-07-22T01:30:44;102269.0;;;17.77;82.18
63956;BME280;50131;52.084;5.228;2022-07-22T01:32:30;102267.0;;;17.68;82.25
63956;BME280;50131;52.084;5.228;2022-07-22T01:34:16;102262.0;;;17.66;83.29
63956;BME280;50131;52.084;5.228;2022-07-22T01:37:51;102265.0;;;17.63;83.49
63956;BME280;50131;52.084;5.228;2022-07-22T01:39:37;102265.0;;;17.7;83.37
63956;BME280;50131;52.084;5.228;2022-07-22T01:41:23;102267.0;;;17.71;83.45
63956;BME280;50131;52.084;5.228;2022-07-22T01:43:09;102263.0;;;17.71;84.23
63956;BME280;50131;52.084;5.228;2022-07-22T01:44:56;102266.0;;;17.77;83.41
63956;BME280;50131;52.084;5.228;2022-07-22T01:46:42;102270.0;;;17.79;82.33
63956;BME280;50131;52.084;5.228;2022-07-22T01:50:16;102269.0;;;17.73;80.53
63956;BME280;50131;52.084;5.228;2022-07-22T01:52:03;102269.0;;;17.68;80.89
63956;BME280;50131;52.084;5.228;2022-07-22T01:53:50;102265.0;;;17.68;81.05
63956;BME280;50131;52.084;5.228;2022-07-22T01:55:37;102259.0;;;17.73;82.17
63956;BME280;50131;52.084;5.228;2022-07-22T01:57:24;102257.0;;;17.77;81.78
63956;BME280;50131;52.084;5.228;2022-07-22T01:59:11;102256.0;;;17.75;81.12
63956;BME280;50131;52.084;5.228;2022-07-22T02:02:45;102259.0;;;17.73;80.27
63956;BME280;50131;52.084;5.228;2022-07-22T02:04:32;102257.0;;;17.73;80.33
63956;BME280;50131;52.084;5.228;2022-07-22T02:06:18;102259.0;;;17.77;79.55
63956;BME280;50131;52.084;5.228;2022-07-22T02:08:07;102256.0;;;17.7;79.62
63956;BME280;50131;52.084;5.228;2022-07-22T02:09:55;102255.0;;;17.68;80.14
63956;BME280;50131;52.084;5.228;2022-07-22T02:11:42;102257.0;;;17.71;80.22
63956;BME280;50131;52.084;5.228;2022-07-22T02:15:15;102255.0;;;17.8;80.33
63956;BME280;50131;52.084;5.228;2022-07-22T02:17:01;102249.0;;;17.75;80.0
63956;BME280;50131;52.084;5.228;2022-07-22T02:18:48;102246.0;;;17.72;80.87
63956;BME280;50131;52.084;5.228;2022-07-22T02:20:35;102247.0;;;17.7;79.94
63956;BME280;50131;52.084;5.228;2022-07-22T02:22:22;102246.0;;;17.7;80.52
63956;BME280;50131;52.084;5.228;2022-07-22T02:25:55;102245.0;;;17.72;79.77
63956;BME280;50131;52.084;5.228;2022-07-22T02:27:42;102243.0;;;17.72;79.91
63956;BME280;50131;52.084;5.228;2022-07-22T02:29:28;102244.0;;;17.75;79.61
63956;BME280;50131;52.084;5.228;2022-07-22T02:31:14;102242.0;;;17.73;79.27
63956;BME280;50131;52.084;5.228;2022-07-22T02:33:01;102243.0;;;17.75;79.52
63956;BME280;50131;52.084;5.228;2022-07-22T02:34:48;102238.0;;;17.73;79.81
63956;BME280;50131;52.084;5.228;2022-07-22T02:38:20;102238.0;;;17.75;80.08
63956;BME280;50131;52.084;5.228;2022-07-22T02:40:08;102236.0;;;17.7;80.2
63956;BME280;50131;52.084;5.228;2022-07-22T02:41:55;102236.0;;;17.7;80.55
63956;BME280;50131;52.084;5.228;2022-07-22T02:43:41;102238.0;;;17.77;79.86
63956;BME280;50131;52.084;5.228;2022-07-22T02:45:28;102241.0;;;17.86;79.34
63956;BME280;50131;52.084;5.228;2022-07-22T02:47:15;102248.0;;;17.78;78.91
63956;BME280;50131;52.084;5.228;2022-07-22T02:50:49;102249.0;;;17.84;78.83
63956;BME280;50131;52.084;5.228;2022-07-22T02:52:36;102247.0;;;17.77;79.3
63956;BME280;50131;52.084;5.228;2022-07-22T02:54:22;102244.0;;;17.8;79.02
63956;BME280;50131;52.084;5.228;2022-07-22T02:56:10;102246.0;;;17.78;78.55
63956;BME280;50131;52.084;5.228;2022-07-22T02:57:56;102245.0;;;17.82;78.31
63956;BME280;50131;52.084;5.228;2022-07-22T03:01:29;102246.0;;;17.77;78.24
63956;BME280;50131;52.084;5.228;2022-07-22T03:03:15;102238.0;;;17.73;78.19
63956;BME280;50131;52.084;5.228;2022-07-22T03:05:02;102241.0;;;17.75;78.25
63956;BME280;50131;52.084;5.228;2022-07-22T03:06:49;102239.0;;;17.72;79.16
63956;BME280;50131;52.084;5.228;2022-07-22T03:08:36;102238.0;;;17.71;79.23
63956;BME280;50131;52.084;5.228;2022-07-22T03:10:23;102236.0;;;17.73;79.38
63956;BME280;50131;52.084;5.228;2022-07-22T03:13:56;102235.0;;;17.72;78.5
63956;BME280;50131;52.084;5.228;2022-07-22T03:15:43;102237.0;;;17.75;79.28
63956;BME280;50131;52.084;5.228;2022-07-22T03:17:33;102236.0;;;17.75;79.37
63956;BME280;50131;52.084;5.228;2022-07-22T03:19:20;102236.0;;;17.8;80.2
63956;BME280;50131;52.084;5.228;2022-07-22T03:21:06;102236.0;;;17.73;80.86
63956;BME280;50131;52.084;5.228;2022-07-22T03:22:52;102239.0;;;17.75;80.11
63956;BME280;50131;52.084;5.228;2022-07-22T03:26:26;102241.0;;;17.79;80.92
63956;BME280;50131;52.084;5.228;2022-07-22T03:28:12;102240.0;;;17.77;80.67
63956;BME280;50131;52.084;5.228;2022-07-22T03:29:58;102242.0;;;17.84;79.23
63956;BME280;50131;52.084;5.228;2022-07-22T03:31:44;102242.0;;;17.8;80.27
63956;BME280;50131;52.084;5.228;2022-07-22T03:33:30;102244.0;;;17.75;80.3
63956;BME280;50131;52.084;5.228;2022-07-22T03:37:02;102244.0;;;17.73;79.52
63956;BME280;50131;52.084;5.228;2022-07-22T03:38:49;102246.0;;;17.77;79.49
63956;BME280;50131;52.084;5.228;2022-07-22T03:40:35;102244.0;;;17.7;78.97
63956;BME280;50131;52.084;5.228;2022-07-22T03:42:21;102243.0;;;17.72;79.02
63956;BME280;50131;52.084;5.228;2022-07-22T03:44:07;102242.0;;;17.8;79.66
63956;BME280;50131;52.084;5.228;2022-07-22T03:45:53;102249.0;;;17.75;81.7
63956;BME280;50131;52.084;5.228;2022-07-22T03:49:30;102246.0;;;17.66;80.22
63956;BME280;50131;52.084;5.228;2022-07-22T03:51:17;102245.0;;;17.62;80.2
63956;BME280;50131;52.084;5.228;2022-07-22T03:53:03;102242.0;;;17.71;79.66
63956;BME280;50131;52.084;5.228;2022-07-22T03:54:49;102246.0;;;17.66;79.13
63956;BME280;50131;52.084;5.228;2022-07-22T03:56:36;102245.0;;;17.75;79.94
63956;BME280;50131;52.084;5.228;2022-07-22T03:58:22;102241.0;;;17.68;79.72
63956;BME280;50131;52.084;5.228;2022-07-22T04:01:56;102243.0;;;17.62;80.06
63956;BME280;50131;52.084;5.228;2022-07-22T04:03:42;102245.0;;;17.61;79.3
63956;BME280;50131;52.084;5.228;2022-07-22T04:05:28;102238.0;;;17.68;79.23
63956;BME280;50131;52.084;5.228;2022-07-22T04:07:14;102238.0;;;17.61;79.67
63956;BME280;50131;52.084;5.228;2022-07-22T04:09:02;102241.0;;;17.59;80.22
63956;BME280;50131;52.084;5.228;2022-07-22T04:12:37;102240.0;;;17.66;79.77
63956;BME280;50131;52.084;5.228;2022-07-22T04:14:24;102241.0;;;17.62;80.05
63956;BME280;50131;52.084;5.228;2022-07-22T04:16:10;102241.0;;;17.62;79.95
63956;BME280;50131;52.084;5.228;2022-07-22T04:17:56;102243.0;;;17.57;79.69
63956;BME280;50131;52.084;5.228;2022-07-22T04:19:43;102239.0;;;17.59;80.16
63956;BME280;50131;52.084;5.228;2022-07-22T04:21:30;102241.0;;;17.62;76.91
63956;BME280;50131;52.084;5.228;2022-07-22T04:25:05;102239.0;;;17.7;75.97
63956;BME280;50131;52.084;5.228;2022-07-22T04:26:51;102238.0;;;17.68;75.77
63956;BME280;50131;52.084;5.228;2022-07-22T04:28:37;102235.0;;;17.7;74.63
63956;BME280;50131;52.084;5.228;2022-07-22T04:30:23;102239.0;;;17.68;75.58
63956;BME280;50131;52.084;5.228;2022-07-22T04:32:09;102238.0;;;17.68;74.22
63956;BME280;50131;52.084;5.228;2022-07-22T04:33:56;102236.0;;;17.68;74.77
63956;BME280;50131;52.084;5.228;2022-07-22T04:37:30;102237.0;;;17.73;76.53
63956;BME280;50131;52.084;5.228;2022-07-22T04:39:18;102234.0;;;17.75;75.08
63956;BME280;50131;52.084;5.228;2022-07-22T04:41:05;102233.0;;;17.7;74.7
63956;BME280;50131;52.084;5.228;2022-07-22T04:42:51;102235.0;;;17.73;75.19
63956;BME280;50131;52.084;5.228;2022-07-22T04:44:38;102235.0;;;17.8;75.23
63956;BME280;50131;52.084;5.228;2022-07-22T04:48:11;102231.0;;;17.84;75.0
63956;BME280;50131;52.084;5.228;2022-07-22T04:49:57;102224.0;;;17.75;75.94
63956;BME280;50131;52.084;5.228;2022-07-22T04:51:43;102227.0;;;17.71;75.48
63956;BME280;50131;52.084;5.228;2022-07-22T04:53:30;102230.0;;;17.73;75.02
63956;BME280;50131;52.084;5.228;2022-07-22T04:55:16;102230.0;;;17.84;75.27
63956;BME280;50131;52.084;5.228;2022-07-22T04:57:03;102227.0;;;17.78;75.08
63956;BME280;50131;52.084;5.228;2022-07-22T05:00:38;102223.0;;;17.84;74.22
63956;BME280;50131;52.084;5.228;2022-07-22T05:02:24;102228.0;;;17.89;74.62
63956;BME280;50131;52.084;5.228;2022-07-22T05:04:10;102224.0;;;17.93;73.66
63956;BME280;50131;52.084;5.228;2022-07-22T05:05:58;102222.0;;;17.88;74.47
63956;BME280;50131;52.084;5.228;2022-07-22T05:07:45;102227.0;;;18.0;74.13
63956;BME280;50131;52.084;5.228;2022-07-22T05:09:31;102224.0;;;17.95;73.64
63956;BME280;50131;52.084;5.228;2022-07-22T05:13:04;102222.0;;;17.96;74.7
63956;BME280;50131;52.084;5.228;2022-07-22T05:14:51;102226.0;;;18.07;74.3
63956;BME280;50131;52.084;5.228;2022-07-22T05:16:38;102231.0;;;18.12;74.62
63956;BME280;50131;52.084;5.228;2022-07-22T05:18:25;102233.0;;;18.12;74.28
63956;BME280;50131;52.084;5.228;2022-07-22T05:20:12;102231.0;;;18.03;74.0
63956;BME280;50131;52.084;5.228;2022-07-22T05:23:44;102233.0;;;18.02;74.78
63956;BME280;50131;52.084;5.228;2022-07-22T05:25:31;102231.0;;;18.09;75.83
63956;BME280;50131;52.084;5.228;2022-07-22T05:27:18;102231.0;;;18.05;75.33
63956;BME280;50131;52.084;5.228;2022-07-22T05:29:05;102230.0;;;18.12;74.91
63956;BME280;50131;52.084;5.228;2022-07-22T05:30:52;102237.0;;;18.11;75.05
63956;BME280;50131;52.084;5.228;2022-07-22T05:32:38;102240.0;;;18.16;75.25
63956;BME280;50131;52.084;5.228;2022-07-22T05:36:10;102237.0;;;18.18;75.87
63956;BME280;50131;52.084;5.228;2022-07-22T05:37:58;102235.0;;;18.18;76.11
63956;BME280;50131;52.084;5.228;2022-07-22T05:39:45;102231.0;;;18.18;77.94
63956;BME280;50131;52.084;5.228;2022-07-22T05:41:32;102231.0;;;18.21;77.17
63956;BME280;50131;52.084;5.228;2022-07-22T05:43:18;102236.0;;;18.25;77.27
63956;BME280;50131;52.084;5.228;2022-07-22T05:45:06;102241.0;;;18.27;75.72
63956;BME280;50131;52.084;5.228;2022-07-22T05:48:40;102247.0;;;18.25;74.5
63956;BME280;50131;52.084;5.228;2022-07-22T05:50:27;102244.0;;;18.25;74.34
63956;BME280;50131;52.084;5.228;2022-07-22T05:52:14;102241.0;;;18.28;76.92
63956;BME280;50131;52.084;5.228;2022-07-22T05:54:02;102241.0;;;18.27;72.8
63956;BME280;50131;52.084;5.228;2022-07-22T05:55:49;102244.0;;;18.27;75.63
63956;BME280;50131;52.084;5.228;2022-07-22T05:57:36;102245.0;;;18.27;74.53
63956;BME280;50131;52.084;5.228;2022-07-22T06:01:09;102247.0;;;18.27;74.49
63956;BME280;50131;52.084;5.228;2022-07-22T06:02:56;102248.0;;;18.3;75.16
63956;BME280;50131;52.084;5.228;2022-07-22T06:04:42;102248.0;;;18.36;73.25
63956;BME280;50131;52.084;5.228;2022-07-22T06:06:28;102246.0;;;18.34;72.66
63956;BME280;50131;52.084;5.228;2022-07-22T06:08:15;102241.0;;;18.37;72.74
63956;BME280;50131;52.084;5.228;2022-07-22T06:11:47;102243.0;;;18.37;72.94
63956;BME280;50131;52.084;5.228;2022-07-22T06:13:33;102248.0;;;18.41;73.27
63956;BME280;50131;52.084;5.228;2022-07-22T06:15:20;102249.0;;;18.41;71.27
63956;BME280;50131;52.084;5.228;2022-07-22T06:17:06;102246.0;;;18.47;72.95
63956;BME280;50131;52.084;5.228;2022-07-22T06:18:52;102241.0;;;18.61;72.16
63956;BME280;50131;52.084;5.228;2022-07-22T06:20:39;102245.0;;;18.53;72.16
63956;BME280;50131;52.084;5.228;2022-07-22T06:24:12;102247.0;;;18.53;71.56
63956;BME280;50131;52.084;5.228;2022-07-22T06:25:58;102242.0;;;18.54;70.95
63956;BME280;50131;52.084;5.228;2022-07-22T06:27:44;102240.0;;;18.61;70.36
63956;BME280;50131;52.084;5.228;2022-07-22T06:29:30;102239.0;;;18.75;69.83
63956;BME280;50131;52.084;5.228;2022-07-22T06:31:18;102235.0;;;18.7;69.48
63956;BME280;50131;52.084;5.228;2022-07-22T06:34:50;102237.0;;;18.71;72.58
63956;BME280;50131;52.084;5.228;2022-07-22T06:36:36;102233.0;;;18.68;71.91
63956;BME280;50131;52.084;5.228;2022-07-22T06:38:23;102233.0;;;18.63;71.53
63956;BME280;50131;52.084;5.228;2022-07-22T06:40:11;102234.0;;;18.68;70.13
63956;BME280;50131;52.084;5.228;2022-07-22T06:41:58;102236.0;;;18.82;69.66
63956;BME280;50131;52.084;5.228;2022-07-22T06:43:44;102237.0;;;18.95;68.64
63956;BME280;50131;52.084;5.228;2022-07-22T06:47:17;102233.0;;;18.86;70.28
63956;BME280;50131;52.084;5.228;2022-07-22T06:49:03;102228.0;;;18.82;68.12
63956;BME280;50131;52.084;5.228;2022-07-22T06:50:50;102230.0;;;18.91;67.81
63956;BME280;50131;52.084;5.228;2022-07-22T06:52:38;102230.0;;;18.91;69.36
63956;BME280;50131;52.084;5.228;2022-07-22T06:54:26;102230.0;;;18.87;70.16
63956;BME280;50131;52.084;5.228;2022-07-22T06:56:12;102233.0;;;18.87;68.31
63956;BME280;50131;52.084;5.228;2022-07-22T06:59:44;102236.0;;;18.96;70.63
63956;BME280;50131;52.084;5.228;2022-07-22T07:01:30;102234.0;;;18.95;70.28
63956;BME280;50131;52.084;5.228;2022-07-22T07:03:17;102235.0;;;19.02;68.89
63956;BME280;50131;52.084;5.228;2022-07-22T07:05:05;102233.0;;;19.04;69.63
63956;BME280;50131;52.084;5.228;2022-07-22T07:06:51;102230.0;;;19.06;67.48
63956;BME280;50131;52.084;5.228;2022-07-22T07:10:26;102233.0;;;19.07;69.11
63956;BME280;50131;52.084;5.228;2022-07-22T07:12:12;102233.0;;;19.04;70.66
63956;BME280;50131;52.084;5.228;2022-07-22T07:13:58;102234.0;;;19.03;70.8
63956;BME280;50131;52.084;5.228;2022-07-22T07:15:45;102231.0;;;19.04;71.41
63956;BME280;50131;52.084;5.228;2022-07-22T07:17:32;102230.0;;;19.06;70.02
63956;BME280;50131;52.084;5.228;2022-07-22T07:19:19;102222.0;;;19.25;68.84
63956;BME280;50131;52.084;5.228;2022-07-22T07:22:53;102225.0;;;19.39;66.69
63956;BME280;50131;52.084;5.228;2022-07-22T07:24:39;102233.0;;;19.45;66.85
63956;BME280;50131;52.084;5.228;2022-07-22T07:26:26;102230.0;;;19.34;67.8
63956;BME280;50131;52.084;5.228;2022-07-22T07:28:13;102230.0;;;19.31;68.87
63956;BME280;50131;52.084;5.228;2022-07-22T07:29:59;102230.0;;;19.34;69.11
63956;BME280;50131;52.084;5.228;2022-07-22T07:31:46;102225.0;;;19.41;66.33
63956;BME280;50131;52.084;5.228;2022-07-22T07:35:20;102231.0;;;19.41;65.25
63956;BME280;50131;52.084;5.228;2022-07-22T07:37:07;102230.0;;;19.52;64.1
63956;BME280;50131;52.084;5.228;2022-07-22T07:38:53;102231.0;;;19.55;67.0
63956;BME280;50131;52.084;5.228;2022-07-22T07:40:39;102227.0;;;19.56;67.49
63956;BME280;50131;52.084;5.228;2022-07-22T07:42:26;102230.0;;;19.45;64.67
63956;BME280;50131;52.084;5.228;2022-07-22T07:46:00;102232.0;;;19.5;64.77
63956;BME280;50131;52.084;5.228;2022-07-22T07:47:48;102226.0;;;19.45;66.41
63956;BME280;50131;52.084;5.228;2022-07-22T07:49:35;102225.0;;;19.43;66.55
63956;BME280;50131;52.084;5.228;2022-07-22T07:51:22;102233.0;;;19.41;64.69
63956;BME280;50131;52.084;5.228;2022-07-22T07:53:08;102230.0;;;19.41;63.75
63956;BME280;50131;52.084;5.228;2022-07-22T07:54:55;102233.0;;;19.39;65.92
63956;BME280;50131;52.084;5.228;2022-07-22T07:58:29;102231.0;;;19.5;65.48
63956;BME280;50131;52.084;5.228;2022-07-22T08:00:16;102235.0;;;19.54;65.42
63956;BME280;50131;52.084;5.228;2022-07-22T08:02:06;102236.0;;;19.5;69.06
63956;BME280;50131;52.084;5.228;2022-07-22T08:03:53;102231.0;;;19.52;67.34
63956;BME280;50131;52.084;5.228;2022-07-22T08:05:40;102226.0;;;19.47;68.22
63956;BME280;50131;52.084;5.228;2022-07-22T08:07:27;102222.0;;;19.41;67.44
63956;BME280;50131;52.084;5.228;2022-07-22T08:11:00;102230.0;;;19.41;67.75
63956;BME280;50131;52.084;5.228;2022-07-22T08:12:47;102230.0;;;19.46;68.63
63956;BME280;50131;52.084;5.228;2022-07-22T08:14:33;102228.0;;;19.45;67.44
63956;BME280;50131;52.084;5.228;2022-07-22T08:16:20;102227.0;;;19.52;67.27
63956;BME280;50131;52.084;5.228;2022-07-22T08:18:07;102231.0;;;19.48;66.77
63956;BME280;50131;52.084;5.228;2022-07-22T08:19:54;102231.0;;;19.47;67.56
63956;BME280;50131;52.084;5.228;2022-07-22T08:23:28;102232.0;;;19.54;67.86
63956;BME280;50131;52.084;5.228;2022-07-22T08:25:15;102227.0;;;19.5;67.05
63956;BME280;50131;52.084;5.228;2022-07-22T08:27:03;102222.0;;;19.66;64.5
63956;BME280;50131;52.084;5.228;2022-07-22T08:28:50;102217.0;;;19.62;64.85
63956;BME280;50131;52.084;5.228;2022-07-22T08:30:36;102219.0;;;19.63;64.75
63956;BME280;50131;52.084;5.228;2022-07-22T08:32:23;102222.0;;;19.7;66.69
63956;BME280;50131;52.084;5.228;2022-07-22T08:35:57;102222.0;;;19.81;65.37
63956;BME280;50131;52.084;5.228;2022-07-22T08:37:45;102216.0;;;19.89;63.78
63956;BME280;50131;52.084;5.228;2022-07-22T08:39:34;102214.0;;;19.95;64.41
63956;BME280;50131;52.084;5.228;2022-07-22T08:41:24;102221.0;;;20.04;64.25
63956;BME280;50131;52.084;5.228;2022-07-22T08:43:10;102217.0;;;20.06;63.38
63956;BME280;50131;52.084;5.228;2022-07-22T08:44:57;102221.0;;;19.95;63.28
63956;BME280;50131;52.084;5.228;2022-07-22T08:48:31;102215.0;;;19.98;63.47
63956;BME280;50131;52.084;5.228;2022-07-22T08:50:18;102208.0;;;20.0;64.55
63956;BME280;50131;52.084;5.228;2022-07-22T08:52:05;102207.0;;;19.95;63.75
63956;BME280;50131;52.084;5.228;2022-07-22T08:53:52;102207.0;;;19.96;66.27
63956;BME280;50131;52.084;5.228;2022-07-22T08:55:41;102209.0;;;19.93;62.75
63956;BME280;50131;52.084;5.228;2022-07-22T08:59:14;102206.0;;;19.93;61.77
63956;BME280;50131;52.084;5.228;2022-07-22T09:01:07;102201.0;;;19.91;61.34
63956;BME280;50131;52.084;5.228;2022-07-22T09:02:53;102200.0;;;19.93;61.97
63956;BME280;50131;52.084;5.228;2022-07-22T09:04:51;102199.0;;;19.93;61.0
63956;BME280;50131;52.084;5.228;2022-07-22T09:06:47;102193.0;;;19.91;60.03
63956;BME280;50131;52.084;5.228;2022-07-22T09:08:50;102202.0;;;19.95;62.33
63956;BME280;50131;52.084;5.228;2022-07-22T09:10:36;102199.0;;;19.95;63.33
63956;BME280;50131;52.084;5.228;2022-07-22T09:12:24;102199.0;;;19.89;64.14
63956;BME280;50131;52.084;5.228;2022-07-22T09:15:58;102198.0;;;19.89;60.93
63956;BME280;50131;52.084;5.228;2022-07-22T09:17:44;102198.0;;;19.93;64.67
63956;BME280;50131;52.084;5.228;2022-07-22T09:19:33;102199.0;;;19.89;62.1
63956;BME280;50131;52.084;5.228;2022-07-22T09:21:20;102197.0;;;19.93;64.98
63956;BME280;50131;52.084;5.228;2022-07-22T09:23:10;102202.0;;;19.97;63.4
63956;BME280;50131;52.084;5.228;2022-07-22T09:24:57;102205.0;;;19.98;60.19
63956;BME280;50131;52.084;5.228;2022-07-22T09:28:30;102209.0;;;20.11;59.25
63956;BME280;50131;52.084;5.228;2022-07-22T09:30:18;102205.0;;;20.07;60.99
63956;BME280;50131;52.084;5.228;2022-07-22T09:32:06;102205.0;;;20.16;60.42
63956;BME280;50131;52.084;5.228;2022-07-22T09:33:54;102207.0;;;20.2;61.28
63956;BME280;50131;52.084;5.228;2022-07-22T09:35:41;102207.0;;;20.18;61.86
63956;BME280;50131;52.084;5.228;2022-07-22T09:37:28;102202.0;;;20.14;59.93
63956;BME280;50131;52.084;5.228;2022-07-22T09:41:14;102205.0;;;20.2;59.91
63956;BME280;50131;52.084;5.228;2022-07-22T09:43:02;102199.0;;;20.32;58.0
63956;BME280;50131;52.084;5.228;2022-07-22T09:44:50;102200.0;;;20.41;59.69
63956;BME280;50131;52.084;5.228;2022-07-22T09:46:37;102201.0;;;20.47;60.29
63956;BME280;50131;52.084;5.228;2022-07-22T09:48:25;102193.0;;;20.65;57.85
63956;BME280;50131;52.084;5.228;2022-07-22T09:50:17;102196.0;;;20.82;58.1
63956;BME280;50131;52.084;5.228;2022-07-22T09:52:07;102194.0;;;20.54;57.43
63956;BME280;50131;52.084;5.228;2022-07-22T09:55:41;102193.0;;;20.67;58.27
63956;BME280;50131;52.084;5.228;2022-07-22T09:57:27;102194.0;;;20.58;57.66
63956;BME280;50131;52.084;5.228;2022-07-22T09:59:14;102188.0;;;20.57;58.01
63956;BME280;50131;52.084;5.228;2022-07-22T10:01:04;102190.0;;;20.61;59.91
63956;BME280;50131;52.084;5.228;2022-07-22T10:02:53;102196.0;;;20.68;56.3
63956;BME280;50131;52.084;5.228;2022-07-22T10:04:44;102193.0;;;20.71;56.1
63956;BME280;50131;52.084;5.228;2022-07-22T10:06:33;102199.0;;;20.86;56.47
63956;BME280;50131;52.084;5.228;2022-07-22T10:10:13;102201.0;;;20.73;56.51
63956;BME280;50131;52.084;5.228;2022-07-22T10:12:02;102201.0;;;20.66;56.58
63956;BME280;50131;52.084;5.228;2022-07-22T10:13:48;102208.0;;;20.59;59.62
63956;BME280;50131;52.084;5.228;2022-07-22T10:15:37;102205.0;;;20.52;58.08
63956;BME280;50131;52.084;5.228;2022-07-22T10:17:24;102205.0;;;20.52;57.28
63956;BME280;50131;52.084;5.228;2022-07-22T10:19:11;102203.0;;;20.43;55.8
63956;BME280;50131;52.084;5.228;2022-07-22T10:22:53;102207.0;;;20.34;57.68
63956;BME280;50131;52.084;5.228;2022-07-22T10:24:59;102206.0;;;20.29;59.49
63956;BME280;50131;52.084;5.228;2022-07-22T10:26:47;102210.0;;;20.45;56.44
63956;BME280;50131;52.084;5.228;2022-07-22T10:28:37;102215.0;;;20.58;56.29
63956;BME280;50131;52.084;5.228;2022-07-22T10:30:26;102211.0;;;20.47;57.92
63956;BME280;50131;52.084;5.228;2022-07-22T10:32:23;102205.0;;;20.49;59.5
63956;BME280;50131;52.084;5.228;2022-07-22T10:34:09;102197.0;;;20.51;57.34
63956;BME280;50131;52.084;5.228;2022-07-22T10:35:57;102200.0;;;20.41;58.65
63956;BME280;50131;52.084;5.228;2022-07-22T10:40:09;102197.0;;;20.46;60.75
63956;BME280;50131;52.084;5.228;2022-07-22T10:41:56;102199.0;;;20.39;59.14
63956;BME280;50131;52.084;5.228;2022-07-22T10:43:46;102202.0;;;20.47;57.16
63956;BME280;50131;52.084;5.228;2022-07-22T10:45:34;102202.0;;;20.43;55.78
63956;BME280;50131;52.084;5.228;2022-07-22T10:47:51;102205.0;;;20.57;58.1
63956;BME280;50131;52.084;5.228;2022-07-22T10:49:38;102206.0;;;20.69;56.02
63956;BME280;50131;52.084;5.228;2022-07-22T10:51:26;102207.0;;;20.79;56.46
63956;BME280;50131;52.084;5.228;2022-07-22T10:53:14;102203.0;;;20.73;56.78
63956;BME280;50131;52.084;5.228;2022-07-22T10:55:18;102199.0;;;20.93;55.84
63956;BME280;50131;52.084;5.228;2022-07-22T10:57:05;102205.0;;;21.0;56.39
63956;BME280;50131;52.084;5.228;2022-07-22T10:58:53;102201.0;;;21.28;55.52
63956;BME280;50131;52.084;5.228;2022-07-22T11:02:30;102198.0;;;21.23;53.39
63956;BME280;50131;52.084;5.228;2022-07-22T11:04:20;102195.0;;;21.22;55.81
63956;BME280;50131;52.084;5.228;2022-07-22T11:06:13;102197.0;;;21.16;54.37